M I D A S
Marine Information and Data Acquisition System
Tripno 850 of the Zeeleeuw from 2005-02-23 07:26:07 to 2005-02-23 14:39:23
Back to CruiseResearch ActivitiesStationsMapUnderway DataData graphs

EquipmentUnitsComment
TimeDGPSUTC
LatitudeDGPSDM.mWGS84
LongitudeDGPSDM.mWGS84
TemperatureSBE03/SBE38deg celciusITS90
ConductivitySBE21S/mITS90
SalinitySBE21 Practical Salinity Units
ChlorophylAChelsea fluorimeterg/lCalibrated in Aceton
Missing or incorrect values are displayed as -999
Sea surface data collected by the RV Zeeleeuw from 2005-02-23 07:27:59 to 2005-02-23 14:45:50
Time Latitude Longitude Temperature Conductivity Salinity ChlorophylA
2005-02-23 07:29:05 51°13.616 2°56.028 11.5018 0.061499 0.384865 -0.848668
2005-02-23 07:30:02 51°13.599 2°56.057 11.1669 0.061499 0.384872 -0.848668
2005-02-23 07:31:05 51°13.549 2°56.133 11.442 0.061499 0.384857 -0.882377
2005-02-23 07:32:04 51°13.53 2°56.217 11.4727 0.061499 0.384894 -0.848668
2005-02-23 07:33:03 51°13.541 2°56.237 11.4948 0.061499 0.384828 -0.848668
2005-02-23 07:34:05 51°13.54 2°56.221 11.1222 0.061499 0.384857 -0.882377
2005-02-23 07:35:05 51°13.529 2°56.229 11.4011 0.061395 0.384162 -0.848668
2005-02-23 07:36:04 51°13.542 2°56.185 11.365 0.061499 0.384835 -0.882377
2005-02-23 07:37:04 51°13.593 2°56.049 11.3736 0.061499 0.384857 -0.848668
2005-02-23 07:38:04 51°13.656 2°55.905 11.3875 0.061395 0.384176 -0.848668
2005-02-23 07:39:05 51°13.715 2°55.774 11.4026 0.061395 0.384162 -0.848668
2005-02-23 07:40:04 51°13.818 2°55.639 11.3857 0.061395 0.384169 -0.882377
2005-02-23 07:41:02 51°13.954 2°55.536 11.3958 0.061499 0.384828 -0.848668
2005-02-23 07:42:04 51°14.106 2°55.435 11.4617 0.061499 0.384835 -0.882377
2005-02-23 07:43:04 51°14.239 2°55.295 11.5057 0.061499 0.384835 -0.882377
2005-02-23 07:44:05 51°14.348 2°55.079 11.5265 0.061499 0.384961 -0.848668
2005-02-23 07:45:05 51°14.449 2°54.807 11.3106 0.061395 0.384117 -0.848668
2005-02-23 07:46:04 51°14.54 2°54.476 11.3895 0.061499 0.384798 -0.882377
2005-02-23 07:47:04 51°14.656 2°54.159 11.4022 0.061499 0.384828 -0.848668
2005-02-23 07:48:04 51°14.809 2°53.896 11.4616 0.061395 0.384139 -0.848668
2005-02-23 07:49:04 51°14.959 2°53.635 11.4969 0.061499 0.38482 -0.882377
2005-02-23 07:50:04 51°15.132 2°53.421 11.5563 0.061499 0.384835 -0.814958
2005-02-23 07:51:04 51°15.326 2°53.271 11.5972 0.061499 0.384813 -0.848668
2005-02-23 07:52:04 51°15.528 2°53.149 11.6329 0.061499 0.384813 -0.882377
2005-02-23 07:53:05 51°15.731 2°53.015 11.6705 0.061499 0.384835 -0.882377
2005-02-23 07:54:04 51°15.929 2°52.889 11.6985 0.061395 0.384169 -0.882377
2005-02-23 07:55:05 51°16.131 2°52.775 11.7356 0.061395 0.384176 -0.848668
2005-02-23 07:56:04 51°16.331 2°52.662 11.7729 0.061395 0.384169 -0.882377
2005-02-23 07:57:05 51°16.533 2°52.546 11.8144 0.061395 0.384191 -0.848668
2005-02-23 07:58:04 51°16.728 2°52.471 11.8405 0.061395 0.384176 -0.882377
2005-02-23 07:59:05 51°16.928 2°52.407 11.8698 0.061395 0.384184 -0.848668
2005-02-23 08:00:05 51°17.123 2°52.339 11.9188 0.061395 0.384169 -0.848668
2005-02-23 08:01:04 51°17.321 2°52.268 11.9375 0.061395 0.384169 -0.882377
2005-02-23 08:02:05 51°17.523 2°52.193 11.9848 0.061395 0.384199 -0.882377
2005-02-23 08:03:05 51°17.723 2°52.214 12.0099 0.061395 0.384221 -0.848668
2005-02-23 08:04:05 51°17.908 2°52.305 12.0746 0.061395 0.384236 -0.848668
2005-02-23 08:05:04 51°18.079 2°52.439 12.0987 0.061395 0.384221 -0.848668
2005-02-23 08:06:04 51°18.229 2°52.638 12.1293 0.061395 0.384273 -0.848668
2005-02-23 08:07:05 51°18.379 2°52.842 12.1564 0.061395 0.384213 -0.882377
2005-02-23 08:08:04 51°18.514 2°53.069 12.1933 0.061395 0.384273 -0.882377
2005-02-23 08:09:05 51°18.624 2°53.341 12.2317 0.061395 0.384228 -0.848668
2005-02-23 08:10:03 51°18.686 2°53.637 12.2498 0.061395 0.384317 -0.882377
2005-02-23 08:11:04 51°18.75 2°53.943 12.2779 0.061395 0.384295 -0.848668
2005-02-23 08:12:04 51°18.816 2°54.243 12.3019 0.061395 0.384287 -0.848668
2005-02-23 08:13:04 51°18.882 2°54.54 12.335 0.061395 0.384317 -0.848668
2005-02-23 08:14:04 51°18.951 2°54.834 12.3459 0.061395 0.384317 -0.882377
2005-02-23 08:15:05 51°19.019 2°55.134 12.3659 0.061395 0.384332 -0.848668
2005-02-23 08:16:05 51°19.088 2°55.434 12.3967 0.061395 0.384347 -0.882377
2005-02-23 08:17:05 51°19.16 2°55.732 4.5217 2.88573 28.50942 2.994204
2005-02-23 08:18:04 51°19.237 2°56.028 4.411 2.852068 29.481091 2.926785
2005-02-23 08:19:03 51°19.316 2°56.315 4.4002 2.836073 29.40411 3.027913
2005-02-23 08:20:04 51°19.398 2°56.613 4.3611 2.833653 29.424222 2.825657
2005-02-23 08:21:04 51°19.476 2°56.901 4.3377 2.846597 29.61429 2.488563
2005-02-23 08:22:05 51°19.555 2°57.192 4.3375 2.840599 29.569973 2.286306
2005-02-23 08:23:04 51°19.635 2°57.478 4.3349 2.837653 29.540896 2.387435
2005-02-23 08:24:04 51°19.717 2°57.77 4.325 2.833549 29.503262 2.218888
2005-02-23 08:25:04 51°19.796 2°58.065 4.3238 2.843125 29.620337 2.185178
2005-02-23 08:26:05 51°19.88 2°58.368 4.3248 2.83639 29.552473 2.555982
2005-02-23 08:27:05 51°19.964 2°58.668 4.324 2.839126 29.586279 3.668392
2005-02-23 08:28:04 51°20.049 2°58.964 4.3308 2.83418 29.526301 3.095332
2005-02-23 08:29:05 51°20.133 2°59.265 4.3246 2.842178 29.622136 2.859366
2005-02-23 08:30:04 51°20.216 2°59.558 4.3296 2.841336 29.617218 2.522272
2005-02-23 08:31:05 51°20.3 2°59.862 4.3256 2.83839 29.587316 2.387435
2005-02-23 08:32:05 51°20.384 3°0.16 4.3281 2.832181 29.514394 2.353725
2005-02-23 08:33:04 51°20.466 3°0.457 4.3412 2.83618 29.553219 2.387435
2005-02-23 08:34:05 51°20.55 3°0.756 4.355 2.848913 29.693979 2.218888
2005-02-23 08:35:05 51°20.632 3°1.053 4.335 2.842283 29.623345 2.08405
2005-02-23 08:36:04 51°20.714 3°1.346 4.3421 2.83639 29.564339 2.218888
2005-02-23 08:37:04 51°20.797 3°1.643 4.3259 2.834496 29.542574 2.421144
2005-02-23 08:38:05 51°20.88 3°1.943 4.3233 2.831234 29.510623 2.859366
2005-02-23 08:39:04 51°20.955 3°2.245 4.3261 2.810609 29.280025 3.129042
2005-02-23 08:40:05 51°21.028 3°2.549 4.3331 2.828287 29.476769 3.398717
2005-02-23 08:41:04 51°21.1 3°2.849 4.3342 2.81566 29.330169 3.263879
2005-02-23 08:42:04 51°21.162 3°3.159 4.3294 2.839863 29.609004 3.331298
2005-02-23 08:43:05 51°21.23 3°3.47 4.3264 2.840284 29.617014 3.129042
2005-02-23 08:44:05 51°21.303 3°3.776 4.325 2.84723 29.700058 2.758238
2005-02-23 08:45:05 51°21.374 3°4.082 4.3217 2.841652 29.64068 2.488563
2005-02-23 08:46:05 51°21.446 3°4.39 4.3153 2.83597 29.579298 2.387435
2005-02-23 08:47:04 51°21.517 3°4.695 4.316 2.826078 29.466372 2.353725
2005-02-23 08:48:04 51°21.588 3°5.003 4.3128 2.84081 29.637348 2.185178
2005-02-23 08:49:05 51°21.659 3°5.315 4.3115 2.83155 29.530855 2.218888
2005-02-23 08:50:05 51°21.724 3°5.629 4.3093 2.837443 29.602583 2.117759
2005-02-23 08:51:05 51°21.78 3°5.949 4.3013 2.828709 29.506886 1.949212
2005-02-23 08:52:04 51°21.82 3°6.267 4.2667 2.820606 29.432662 1.578409
2005-02-23 08:53:05 51°21.86 3°6.592 4.2608 2.801981 29.234216 1.376153
2005-02-23 08:54:05 51°21.901 3°6.915 4.2682 2.791563 29.121509 1.275024
2005-02-23 08:55:05 51°21.943 3°7.241 4.2697 2.786934 29.063619 1.342443
2005-02-23 08:56:05 51°21.984 3°7.571 4.2777 2.784092 29.027085 1.342443
2005-02-23 08:57:05 51°22.026 3°7.905 4.2829 2.795141 29.146208 1.443571
2005-02-23 08:58:05 51°22.065 3°8.239 4.2802 2.774307 28.906956 1.477281
2005-02-23 08:59:04 51°22.098 3°8.573 4.2807 2.787565 29.059178 1.51099
2005-02-23 09:00:05 51°22.134 3°8.913 4.2768 2.776937 28.938703 1.578409
2005-02-23 09:01:04 51°22.17 3°9.251 4.2784 2.768414 28.84243 1.645828
2005-02-23 09:02:05 51°22.208 3°9.594 4.27 2.770414 28.86847 1.679537
2005-02-23 09:03:04 51°22.246 3°9.933 4.2674 2.759997 28.753568 1.713247
2005-02-23 09:04:05 51°22.287 3°10.279 4.2668 2.754841 28.69519 1.612118
2005-02-23 09:05:05 51°22.33 3°10.623 4.2703 2.748108 28.619494 1.578409
2005-02-23 09:06:05 51°22.372 3°10.971 4.282 2.742005 28.541864 1.5447
2005-02-23 09:07:05 51°22.415 3°11.319 4.2687 2.732852 28.436977 1.51099
2005-02-23 09:08:05 51°22.468 3°11.663 4.2688 2.734851 28.465987 1.51099
2005-02-23 09:09:04 51°22.53 3°11.998 4.2661 2.731905 28.433756 1.51099
2005-02-23 09:10:05 51°22.619 3°12.319 4.2693 2.732641 28.441432 1.477281
2005-02-23 09:11:04 51°22.722 3°12.621 4.2934 2.723067 28.323391 1.578409
2005-02-23 09:12:04 51°22.847 3°12.903 4.3057 2.721489 28.290147 1.5447
2005-02-23 09:13:04 51°23.033 3°13.054 4.3318 2.71728 28.229889 1.5447
2005-02-23 09:14:04 51°23.249 3°13.071 4.3531 2.70213 28.028175 1.409862
2005-02-23 09:15:05 51°23.464 3°13.066 4.3484 2.7197 28.223535 1.443571
2005-02-23 09:16:05 51°23.676 3°13.048 4.3449 2.730536 28.353425 1.409862
2005-02-23 09:17:04 51°23.888 3°13.032 4.3774 2.710652 28.114186 1.308734
2005-02-23 09:18:04 51°24.105 3°13.016 4.3868 2.7177 28.171304 1.409862
2005-02-23 09:19:04 51°24.324 3°13.001 4.3722 2.721488 28.219803 1.409862
2005-02-23 09:20:05 51°24.547 3°12.985 4.3611 2.728116 28.31061 1.275024
2005-02-23 09:21:04 51°24.766 3°12.976 4.3458 2.719489 28.214336 1.173896
2005-02-23 09:22:05 51°24.959 3°12.849 4.3323 2.763153 28.737362 1.612118
2005-02-23 09:23:05 51°25.136 3°12.674 4.351 2.809241 29.255702 2.353725
2005-02-23 09:24:05 51°25.198 3°12.379 4.3659 2.840494 29.608335 2.758238
2005-02-23 09:25:04 51°25.157 3°12.036 4.3862 2.850597 29.696646 2.926785
2005-02-23 09:26:04 51°25.111 3°11.682 4.3685 2.855964 29.758307 3.061623
2005-02-23 09:27:04 51°25.07 3°11.329 4.3461 2.863015 29.852111 2.859366
2005-02-23 09:28:04 51°25.03 3°10.974 4.3323 2.86049 29.848622 2.65711
2005-02-23 09:29:05 51°24.991 3°10.62 4.3709 2.869751 29.950408 2.522272
2005-02-23 09:30:04 51°24.95 3°10.273 4.4278 2.872276 29.932206 2.589691
2005-02-23 09:31:05 51°24.911 3°9.92 4.4834 2.895113 30.149729 2.893076
2005-02-23 09:32:04 51°24.871 3°9.573 4.5178 2.902059 30.182036 3.19646
2005-02-23 09:33:05 51°24.833 3°9.218 4.5495 2.915425 30.304795 3.23017
2005-02-23 09:34:05 51°24.815 3°8.862 4.5671 2.923529 30.373532 3.263879
2005-02-23 09:35:05 51°24.812 3°8.504 4.5951 2.923424 30.354568 3.668392
2005-02-23 09:36:04 51°24.839 3°8.158 4.6156 2.938054 30.493117 3.938067
2005-02-23 09:37:04 51°24.879 3°7.811 4.6427 2.941843 30.525999 3.533554
2005-02-23 09:38:05 51°25.004 3°7.549 4.6643 2.935527 30.434284 3.297589
2005-02-23 09:39:05 51°25.194 3°7.471 4.6631 2.941106 30.478736 3.365007
2005-02-23 09:40:05 51°25.389 3°7.394 4.6604 2.939843 30.469132 3.297589
2005-02-23 09:41:04 51°25.583 3°7.318 4.6683 2.934159 30.400083 2.960494
2005-02-23 09:42:05 51°25.777 3°7.243 4.6894 2.935527 30.404452 2.724529
2005-02-23 09:43:04 51°25.965 3°7.252 4.7222 2.938579 30.412766 2.6234
2005-02-23 09:44:05 51°26.09 3°7.492 4.7363 2.939105 30.393038 2.589691
2005-02-23 09:45:05 51°26.19 3°7.782 4.7375 2.93921 30.389418 2.65711
2005-02-23 09:46:04 51°26.29 3°8.074 4.7371 2.936263 30.355784 2.690819
2005-02-23 09:47:05 51°26.394 3°8.372 4.7439 2.928053 30.264514 2.589691
2005-02-23 09:48:04 51°26.497 3°8.664 4.7464 2.929737 30.276522 2.522272
2005-02-23 09:49:05 51°26.66 3°8.859 4.7676 2.930579 30.278123 2.522272
2005-02-23 09:50:04 51°26.855 3°8.838 4.8097 2.939105 30.35291 2.589691
2005-02-23 09:51:05 51°27.039 3°8.696 4.8489 2.953945 30.479507 2.555982
2005-02-23 09:52:04 51°27.219 3°8.54 4.871 2.967629 30.604785 2.522272
2005-02-23 09:53:05 51°27.4 3°8.384 4.8908 2.961944 30.523179 2.387435
2005-02-23 09:54:05 51°27.581 3°8.231 4.9015 2.977523 30.686782 2.286306
2005-02-23 09:55:05 51°27.759 3°8.083 4.9149 2.983312 30.73894 2.218888
2005-02-23 09:56:04 51°27.939 3°7.937 4.93 2.988259 30.783108 2.218888
2005-02-23 09:57:05 51°28.122 3°7.784 4.9522 2.997207 30.867901 2.117759
2005-02-23 09:58:05 51°28.305 3°7.632 4.9761 3.006364 30.950165 2.016631
2005-02-23 09:59:05 51°28.488 3°7.481 4.9954 3.016154 31.041172 2.08405
2005-02-23 10:00:04 51°28.671 3°7.329 5.0081 3.023628 31.111493 1.881794
2005-02-23 10:01:05 51°28.856 3°7.172 5.0241 3.028892 31.159095 1.746956
2005-02-23 10:02:05 51°29.04 3°7.019 5.0453 3.033418 31.190945 1.679537
2005-02-23 10:03:05 51°29.224 3°6.862 5.0498 3.038787 31.236422 1.746956
2005-02-23 10:04:05 51°29.406 3°6.707 5.0614 3.035944 31.200862 1.645828
2005-02-23 10:05:05 51°29.592 3°6.541 4.9672 3.022365 31.068616 1.51099
2005-02-23 10:06:05 51°29.776 3°6.376 4.9629 3.005417 30.933705 1.308734
2005-02-23 10:07:05 51°29.959 3°6.207 4.9583 3.010049 30.983942 1.241315
2005-02-23 10:08:05 51°30.147 3°6.039 4.9738 3.003312 30.921127 1.106477
2005-02-23 10:09:05 51°30.336 3°5.867 4.9956 3.010785 30.974438 1.072768
2005-02-23 10:10:05 51°30.524 3°5.692 4.9485 3.006891 30.933414 1.039059
2005-02-23 10:11:05 51°30.707 3°5.523 4.9255 2.981312 30.692773 1.005349
2005-02-23 10:12:05 51°30.891 3°5.364 5.0668 3.015838 31.031882 1.072768
2005-02-23 10:13:05 51°31.076 3°5.203 5.0942 3.055315 31.388128 1.140187
2005-02-23 10:14:05 51°31.268 3°5.037 5.0771 3.051209 31.340682 1.140187
2005-02-23 10:15:05 51°31.457 3°4.87 5.0639 3.044156 31.268779 1.106477
2005-02-23 10:16:05 51°31.649 3°4.705 5.0578 3.041945 31.255942 1.039059
2005-02-23 10:17:05 51°31.842 3°4.543 5.0479 3.042471 31.270102 1.005349
2005-02-23 10:18:04 51°32.032 3°4.383 5.0312 3.037524 31.231881 1.173896
2005-02-23 10:19:05 51°32.226 3°4.22 5.0208 3.031629 31.173057 0.97164
2005-02-23 10:20:04 51°32.419 3°4.062 5.0184 3.045419 31.339686 0.904221
2005-02-23 10:21:05 51°32.616 3°3.901 5.0033 3.038471 31.266396 0.870512
2005-02-23 10:22:05 51°32.812 3°3.759 5.1409 3.044261 31.332261 0.870512
2005-02-23 10:23:05 51°32.997 3°3.617 5.2178 3.116377 31.988994 1.106477
2005-02-23 10:24:05 51°33.166 3°3.428 5.2399 3.140383 32.224831 1.072768
2005-02-23 10:25:05 51°33.217 3°3.107 5.263 3.145016 32.259812 0.803093
2005-02-23 10:26:05 51°33.156 3°2.759 5.2668 3.147437 32.267994 0.668255
2005-02-23 10:27:05 51°33.071 3°2.416 5.3055 3.140172 32.176357 0.735674
2005-02-23 10:28:05 51°32.991 3°2.069 5.2897 3.1467 32.229453 0.803093
2005-02-23 10:29:05 51°32.916 3°1.72 5.2724 3.152491 32.30267 0.803093
2005-02-23 10:30:05 51°32.842 3°1.372 5.2707 3.147437 32.26212 0.769383
2005-02-23 10:31:05 51°32.743 3°1.041 5.2587 3.153439 32.337794 0.701965
2005-02-23 10:32:05 51°32.641 3°0.709 5.2377 3.151965 32.326947 0.634546
2005-02-23 10:33:04 51°32.535 3°0.379 5.1662 3.124695 32.049223 0.567127
2005-02-23 10:34:05 51°32.436 3°0.036 5.0754 3.11343 32.015616 0.39858
2005-02-23 10:35:05 51°32.33 2°59.692 5.0278 3.097743 31.891355 0.331161
2005-02-23 10:36:05 51°32.223 2°59.354 5.0208 3.078371 31.705692 0.263742
2005-02-23 10:37:05 51°32.113 2°59.025 5.0414 3.076897 31.690565 0.297452
2005-02-23 10:38:05 51°32.01 2°58.69 5.0476 3.080793 31.719147 0.331161
2005-02-23 10:39:05 51°31.903 2°58.358 5.0711 3.087109 31.775276 0.331161
2005-02-23 10:40:05 51°31.8 2°58.025 5.0927 3.089425 31.777525 0.465999
2005-02-23 10:41:05 51°31.699 2°57.698 5.0991 3.094479 31.818383 0.567127
2005-02-23 10:42:05 51°31.591 2°57.382 5.2073 3.090057 31.765604 0.634546
2005-02-23 10:43:04 51°31.487 2°57.068 5.2635 3.139014 32.198385 0.904221
2005-02-23 10:44:05 51°31.383 2°56.747 5.2602 3.145858 32.254266 0.836802
2005-02-23 10:45:05 51°31.278 2°56.428 5.2621 3.151228 32.311013 0.803093
2005-02-23 10:46:05 51°31.17 2°56.113 5.2626 3.138909 32.172066 0.735674
2005-02-23 10:47:04 51°31.065 2°55.806 5.2583 3.146279 32.244786 0.668255
2005-02-23 10:48:05 51°30.959 2°55.484 5.2576 3.151965 32.319379 0.668255
2005-02-23 10:49:05 51°30.87 2°55.157 5.2499 3.14491 32.246028 0.600836
2005-02-23 10:50:05 51°30.817 2°54.819 5.2491 3.140067 32.196929 0.668255
2005-02-23 10:51:05 51°30.79 2°54.472 5.2592 3.147648 32.280459 0.634546
2005-02-23 10:52:05 51°30.738 2°54.132 5.2588 3.146384 32.256884 0.600836
2005-02-23 10:53:05 51°30.685 2°53.792 5.283 3.137856 32.15176 0.634546
2005-02-23 10:54:05 51°30.644 2°53.452 5.285 3.134802 32.125489 0.634546
2005-02-23 10:55:05 51°30.77 2°53.232 5.2649 3.141751 32.193432 0.567127
2005-02-23 10:56:05 51°30.948 2°53.379 5.2647 3.152175 32.315045 0.567127
2005-02-23 10:57:05 51°31.111 2°53.606 5.2721 3.155334 32.350054 0.769383
2005-02-23 10:58:05 51°31.258 2°53.867 5.2781 3.158704 32.384931 0.701965
2005-02-23 10:59:05 51°31.396 2°54.14 5.2868 3.157966 32.369832 0.701965
2005-02-23 11:00:05 51°31.538 2°54.425 5.2906 3.149122 32.261101 0.701965
2005-02-23 11:01:05 51°31.675 2°54.702 5.298 3.162494 32.409421 0.735674
2005-02-23 11:02:05 51°31.815 2°54.982 5.3027 3.165021 32.429667 0.836802
2005-02-23 11:03:05 51°31.959 2°55.266 5.304 3.165337 32.431566 0.836802
2005-02-23 11:04:05 51°32.101 2°55.547 5.2979 3.151333 32.27695 0.904221
2005-02-23 11:05:05 51°32.24 2°55.828 5.2969 3.165969 32.441261 0.803093
2005-02-23 11:06:05 51°32.375 2°56.11 5.3014 3.165337 32.435779 0.668255
2005-02-23 11:07:05 51°32.514 2°56.393 5.3064 3.164284 32.419622 0.634546
2005-02-23 11:08:05 51°32.651 2°56.672 5.2986 3.166074 32.443298 0.499708
2005-02-23 11:09:05 51°32.787 2°56.954 5.3108 3.163442 32.410909 0.432289
2005-02-23 11:10:04 51°32.921 2°57.231 5.3172 3.167864 32.448434 0.465999
2005-02-23 11:11:04 51°33.06 2°57.516 5.3297 3.17176 32.488405 0.465999
2005-02-23 11:12:05 51°33.2 2°57.81 5.3363 3.173866 32.503851 0.465999
2005-02-23 11:13:05 51°33.336 2°58.099 5.3449 3.167232 32.418541 0.432289
2005-02-23 11:14:05 51°33.473 2°58.391 5.3506 3.179552 32.549752 0.465999
2005-02-23 11:15:05 51°33.61 2°58.683 5.352 3.173866 32.479404 0.465999
2005-02-23 11:16:03 51°33.742 2°58.963 5.3625 3.171549 32.453156 0.499708
2005-02-23 11:17:05 51°33.883 2°59.263 5.3684 3.179762 32.537791 0.634546
2005-02-23 11:18:05 51°34.02 2°59.554 5.3698 3.1825 32.562905 0.870512
2005-02-23 11:19:05 51°34.155 2°59.844 5.3738 3.185869 32.601089 1.106477
2005-02-23 11:20:05 51°34.294 3°0.14 5.3785 3.181973 32.550189 1.173896
2005-02-23 11:21:05 51°34.432 3°0.436 5.3779 3.185238 32.587171 1.207606
2005-02-23 11:22:05 51°34.567 3°0.73 5.3762 3.178814 32.516092 1.275024
2005-02-23 11:23:05 51°34.71 3°1.02 5.3756 3.183763 32.570469 1.308734
2005-02-23 11:24:05 51°34.905 3°1.131 5.3658 3.185764 32.60074 1.241315
2005-02-23 11:25:04 51°35.097 3°0.999 5.382 3.183763 32.576379 1.106477
2005-02-23 11:26:04 51°35.278 3°0.817 5.3841 3.175655 32.470215 1.072768
2005-02-23 11:27:05 51°35.448 3°0.605 5.3825 3.190924 32.644835 1.072768
2005-02-23 11:28:05 51°35.493 3°0.286 5.3813 3.188607 32.621969 1.005349
2005-02-23 11:29:05 51°35.389 2°59.988 5.3833 3.191029 32.649412 0.97164
2005-02-23 11:30:05 51°35.253 2°59.714 5.4051 3.187765 32.60313 1.039059
2005-02-23 11:31:05 51°35.121 2°59.44 5.3855 3.19482 32.677976 1.072768
2005-02-23 11:32:05 51°34.99 2°59.164 5.3943 3.193661 32.666546 1.072768
2005-02-23 11:33:05 51°34.863 2°58.885 5.3855 3.186606 32.584101 1.072768
2005-02-23 11:34:05 51°34.735 2°58.614 5.3819 3.190924 32.646526 1.072768
2005-02-23 11:35:05 51°34.609 2°58.336 5.386 3.182394 32.549056 1.106477
2005-02-23 11:36:05 51°34.483 2°58.051 5.3815 3.188502 32.619085 1.072768
2005-02-23 11:37:05 51°34.359 2°57.771 5.391 3.17376 32.462215 1.072768
2005-02-23 11:38:04 51°34.234 2°57.499 5.3644 3.187238 32.612375 1.039059
2005-02-23 11:39:05 51°34.102 2°57.221 5.3608 3.177656 32.518144 1.005349
2005-02-23 11:40:05 51°33.982 2°56.943 5.3369 3.180394 32.556768 1.005349
2005-02-23 11:41:05 51°33.857 2°56.674 5.333 3.177446 32.534319 1.005349
2005-02-23 11:42:05 51°33.728 2°56.4 5.3329 3.16818 32.430122 1.005349
2005-02-23 11:43:04 51°33.606 2°56.117 5.3338 3.175445 32.515011 1.005349
2005-02-23 11:44:05 51°33.482 2°55.832 5.3237 3.171023 32.471614 1.005349
2005-02-23 11:45:05 51°33.369 2°55.55 5.3334 3.171128 32.472808 1.039059
2005-02-23 11:46:05 51°33.248 2°55.272 5.3377 3.175656 32.518243 1.140187
2005-02-23 11:47:04 51°33.132 2°54.999 5.3257 3.173866 32.506383 1.241315
2005-02-23 11:48:05 51°33.007 2°54.725 5.3306 3.173445 32.503294 1.241315
2005-02-23 11:49:05 51°32.887 2°54.453 5.3383 3.173234 32.485726 1.241315
2005-02-23 11:50:05 51°32.773 2°54.183 5.3363 3.170812 32.454906 1.275024
2005-02-23 11:51:05 51°32.656 2°53.913 5.3302 3.171233 32.468103 1.275024
2005-02-23 11:52:05 51°32.54 2°53.64 5.3191 3.170917 32.464522 1.173896
2005-02-23 11:53:05 51°32.42 2°53.366 5.3331 3.166179 32.423435 1.207606
2005-02-23 11:54:05 51°32.305 2°53.103 5.3257 3.164389 32.389686 1.275024
2005-02-23 11:55:05 51°32.187 2°52.828 5.3326 3.168812 32.448229 1.241315
2005-02-23 11:56:05 51°32.069 2°52.553 5.3371 3.168917 32.445211 1.207606
2005-02-23 11:57:04 51°31.953 2°52.276 5.3459 3.162178 32.360431 1.173896
2005-02-23 11:58:05 51°31.836 2°52 5.3433 3.171654 32.463611 1.140187
2005-02-23 11:59:05 51°31.719 2°51.733 5.3334 3.173129 32.485375 1.106477
2005-02-23 12:00:05 51°31.606 2°51.465 5.3356 3.169654 32.444305 1.173896
2005-02-23 12:01:05 51°31.493 2°51.192 5.3284 3.172286 32.476669 1.173896
2005-02-23 12:02:05 51°31.379 2°50.927 5.3383 3.165863 32.395464 1.140187
2005-02-23 12:03:05 51°31.269 2°50.642 5.34 3.172181 32.472105 1.140187
2005-02-23 12:04:05 51°31.161 2°50.36 5.3316 3.16818 32.426757 1.173896
2005-02-23 12:05:05 51°31.05 2°50.088 5.3408 3.167548 32.428853 1.173896
2005-02-23 12:06:05 51°30.942 2°49.803 5.3391 3.16997 32.438627 1.173896
2005-02-23 12:07:05 51°30.836 2°49.522 5.3296 3.16281 32.373468 1.173896
2005-02-23 12:08:05 51°30.727 2°49.248 5.3295 3.168179 32.41078 1.173896
2005-02-23 12:09:05 51°30.624 2°48.967 5.3245 3.164705 32.404198 1.207606
2005-02-23 12:10:05 51°30.517 2°48.694 5.3224 3.162283 32.377585 1.173896
2005-02-23 12:11:05 51°30.405 2°48.422 5.3306 3.164705 32.404198 1.173896
2005-02-23 12:12:05 51°30.3 2°48.145 5.3087 3.1646 32.406369 1.275024
2005-02-23 12:13:05 51°30.2 2°47.867 5.3049 3.165021 32.419561 1.275024
2005-02-23 12:14:05 51°30.093 2°47.589 5.3133 3.165126 32.421597 1.275024
2005-02-23 12:15:05 51°29.984 2°47.315 5.3214 3.167232 32.441269 1.241315
2005-02-23 12:16:05 51°29.879 2°47.041 5.3129 3.167759 32.438817 1.106477
2005-02-23 12:17:05 51°29.774 2°46.765 5.3199 3.165969 32.422731 1.443571
2005-02-23 12:18:05 51°29.67 2°46.495 5.3231 3.169233 32.451319 1.308734
2005-02-23 12:19:05 51°29.574 2°46.219 5.3488 3.16639 32.420772 1.140187
2005-02-23 12:20:05 51°29.579 2°45.893 5.3284 3.17176 32.469858 1.072768
2005-02-23 12:21:05 51°29.675 2°45.599 5.3436 3.17376 32.491694 1.072768
2005-02-23 12:22:05 51°29.865 2°45.414 5.3504 3.176498 32.510078 1.005349
2005-02-23 12:23:05 51°30.08 2°45.292 5.3578 3.171654 32.450141 0.803093
2005-02-23 12:24:05 51°30.296 2°45.389 5.3635 3.173023 32.458074 0.533418
2005-02-23 12:25:05 51°30.441 2°45.696 5.3633 3.179973 32.534272 0.465999
2005-02-23 12:26:05 51°30.56 2°46.04 5.3548 3.178288 32.521087 0.533418
2005-02-23 12:27:05 51°30.674 2°46.391 5.3525 3.179025 32.535344 0.600836
2005-02-23 12:28:05 51°30.789 2°46.74 5.3534 3.176077 32.506147 0.567127
2005-02-23 12:29:05 51°30.904 2°47.096 5.3526 3.17713 32.514708 0.634546
2005-02-23 12:30:05 51°31.017 2°47.451 5.3528 3.177656 32.522361 0.735674
2005-02-23 12:31:05 51°31.128 2°47.808 5.3608 3.176393 32.503826 0.769383
2005-02-23 12:32:05 51°31.24 2°48.16 5.3572 3.179341 32.535549 1.207606
2005-02-23 12:33:05 51°31.368 2°48.504 5.3554 3.177235 32.515901 1.275024
2005-02-23 12:34:05 51°31.503 2°48.843 5.3524 3.176919 32.514008 1.275024
2005-02-23 12:35:05 51°31.634 2°49.181 5.3467 3.174813 32.494356 1.342443
2005-02-23 12:36:05 51°31.765 2°49.518 5.3433 3.174813 32.496885 1.275024
2005-02-23 12:37:05 51°31.895 2°49.856 5.3448 3.17555 32.506926 1.173896
2005-02-23 12:38:05 51°32.025 2°50.195 5.3423 3.175024 32.499272 1.106477
2005-02-23 12:39:05 51°32.16 2°50.527 5.3432 3.17534 32.49948 1.005349
2005-02-23 12:40:05 51°32.298 2°50.855 5.35 3.176498 32.515981 0.735674
2005-02-23 12:41:05 51°32.435 2°51.188 5.3484 3.177762 32.528616 0.567127
2005-02-23 12:42:05 51°32.568 2°51.515 5.3451 3.178393 32.534934 0.668255
2005-02-23 12:43:05 51°32.705 2°51.848 5.3493 3.178604 32.537321 0.668255
2005-02-23 12:44:05 51°32.838 2°52.173 5.3516 3.178288 32.529521 0.567127
2005-02-23 12:45:05 51°32.976 2°52.507 5.3593 3.179762 32.545386 0.465999
2005-02-23 12:46:05 51°33.11 2°52.835 5.3628 3.181658 32.556737 0.465999
2005-02-23 12:47:05 51°33.248 2°53.171 5.3654 3.182184 32.564391 0.634546
2005-02-23 12:48:05 51°33.383 2°53.501 5.3706 3.1825 32.564594 0.634546
2005-02-23 12:49:05 51°33.517 2°53.831 5.3702 3.182289 32.561363 0.567127
2005-02-23 12:50:04 51°33.545 2°54.2 5.3703 3.183763 32.56878 0.701965
2005-02-23 12:51:05 51°33.414 2°54.509 5.368 3.182605 32.555659 0.97164
2005-02-23 12:52:05 51°33.232 2°54.712 5.3731 3.173655 32.458498 0.97164
2005-02-23 12:53:05 51°33.038 2°54.889 5.3585 3.176814 32.502699 0.97164
2005-02-23 12:54:05 51°32.843 2°55.061 5.3374 3.172918 32.47035 0.870512
2005-02-23 12:55:05 51°32.652 2°55.238 5.3207 3.168496 32.433703 0.870512
2005-02-23 12:56:05 51°32.46 2°55.407 5.3136 3.165337 32.412201 0.769383
2005-02-23 12:57:05 51°32.276 2°55.608 5.3073 3.163336 32.397091 0.769383
2005-02-23 12:58:05 51°32.091 2°55.822 5.3053 3.161336 32.379452 0.735674
2005-02-23 12:59:05 51°31.909 2°56.021 5.3004 3.160599 32.377822 0.701965
2005-02-23 13:00:05 51°31.724 2°56.216 5.2855 3.158177 32.353719 0.735674
2005-02-23 13:01:05 51°31.541 2°56.416 5.2725 3.153439 32.316779 0.803093
2005-02-23 13:02:04 51°31.363 2°56.621 5.2642 3.150912 32.295668 0.836802
2005-02-23 13:03:05 51°31.179 2°56.832 5.2207 3.145542 32.250681 0.836802
2005-02-23 13:04:05 51°30.998 2°57.041 5.1933 3.133644 32.156684 0.735674
2005-02-23 13:05:05 51°30.82 2°57.24 5.1513 3.122905 32.067326 0.634546
2005-02-23 13:06:05 51°30.623 2°57.352 5.1113 3.092267 31.757545 0.803093
2005-02-23 13:07:04 51°30.424 2°57.445 5.1069 3.079529 31.63931 0.870512
2005-02-23 13:08:05 51°30.216 2°57.442 5.1031 3.080371 31.64888 0.803093
2005-02-23 13:09:05 51°30.015 2°57.379 5.0992 3.080792 31.655319 0.769383
2005-02-23 13:10:05 51°29.817 2°57.304 5.1053 3.081739 31.667742 0.735674
2005-02-23 13:11:05 51°29.617 2°57.208 5.1263 3.08195 31.667652 0.735674
2005-02-23 13:12:05 51°29.415 2°57.118 5.1237 3.080792 31.64705 0.701965
2005-02-23 13:13:05 51°29.215 2°57.032 5.1251 3.08216 31.65185 0.701965
2005-02-23 13:14:05 51°29.018 2°56.949 5.1242 3.087214 31.709251 0.701965
2005-02-23 13:15:05 51°28.819 2°56.866 5.1324 3.089951 31.744495 0.701965
2005-02-23 13:16:04 51°28.627 2°56.787 5.1241 3.092478 31.76989 0.769383
2005-02-23 13:17:05 51°28.426 2°56.713 5.1222 3.094057 31.791987 1.039059
2005-02-23 13:18:04 51°28.231 2°56.632 5.1092 3.094163 31.798168 0.97164
2005-02-23 13:19:05 51°28.031 2°56.57 5.0883 3.090478 31.767902 1.106477
2005-02-23 13:20:03 51°27.834 2°56.554 5.0594 3.073738 31.60987 1.005349
2005-02-23 13:21:05 51°27.629 2°56.5 5.0417 3.065316 31.532258 0.93793
2005-02-23 13:22:05 51°27.432 2°56.43 5.0538 3.064158 31.523212 1.039059
2005-02-23 13:23:05 51°27.243 2°56.36 5.0516 3.063421 31.50823 1.106477
2005-02-23 13:24:05 51°27.046 2°56.288 5.0622 3.064264 31.513684 1.005349
2005-02-23 13:25:05 51°26.848 2°56.209 5.0616 3.065 31.522889 1.072768
2005-02-23 13:26:05 51°26.654 2°56.132 5.0334 3.063632 31.513099 1.106477
2005-02-23 13:27:03 51°26.465 2°56.054 5.0438 3.059737 31.480339 1.275024
2005-02-23 13:28:05 51°26.259 2°55.98 5.0429 3.059105 31.470681 1.409862
2005-02-23 13:29:05 51°26.061 2°55.899 5.038 3.058473 31.465968 1.51099
2005-02-23 13:30:03 51°25.87 2°55.823 5.0365 3.05721 31.453246 1.612118
2005-02-23 13:31:05 51°25.663 2°55.737 5.0348 3.056579 31.452651 1.612118
2005-02-23 13:32:05 51°25.467 2°55.652 5.0129 3.054157 31.431692 1.679537
2005-02-23 13:33:05 51°25.268 2°55.57 5.0066 3.052683 31.424804 1.780665
2005-02-23 13:34:05 51°25.069 2°55.487 4.9979 3.051315 31.41664 1.746956
2005-02-23 13:35:03 51°24.873 2°55.408 4.981 3.049315 31.406224 1.780665
2005-02-23 13:36:05 51°24.665 2°55.33 4.9639 3.047104 31.390933 1.612118
2005-02-23 13:37:05 51°24.466 2°55.252 4.9479 3.041525 31.344669 1.814375
2005-02-23 13:38:05 51°24.268 2°55.173 4.9496 3.03784 31.315853 1.982922
2005-02-23 13:39:05 51°24.076 2°55.074 4.9195 3.034998 31.294152 2.08405
2005-02-23 13:40:05 51°23.899 2°54.935 4.9102 3.031524 31.268529 2.218888
2005-02-23 13:41:05 51°23.734 2°54.761 4.8217 3.027314 31.239416 2.252597
2005-02-23 13:42:05 51°23.558 2°54.617 4.7332 2.991418 30.941069 1.5447
2005-02-23 13:43:05 51°23.376 2°54.491 4.7182 2.984261 30.897637 1.376153
2005-02-23 13:44:04 51°23.202 2°54.364 4.7089 2.981103 30.874584 1.275024
2005-02-23 13:45:05 51°23.018 2°54.233 4.6999 2.98163 30.891226 1.342443
2005-02-23 13:46:05 51°22.838 2°54.106 4.6928 2.977735 30.867077 1.275024
2005-02-23 13:47:05 51°22.65 2°53.991 4.6652 2.975314 30.838544 1.207606
2005-02-23 13:48:05 51°22.457 2°53.895 4.6675 2.972788 30.816154 1.173896
2005-02-23 13:49:05 51°22.262 2°53.798 4.6683 2.970788 30.806311 1.173896
2005-02-23 13:50:05 51°22.068 2°53.702 4.6739 2.974262 30.842826 1.376153
2005-02-23 13:51:05 51°21.874 2°53.599 4.6736 2.977525 30.876112 1.713247
2005-02-23 13:52:05 51°21.675 2°53.501 4.6776 2.975104 30.848385 1.713247
2005-02-23 13:53:05 51°21.481 2°53.403 4.6861 2.973525 30.826222 1.477281
2005-02-23 13:54:05 51°21.276 2°53.323 4.6823 2.97184 30.802046 1.477281
2005-02-23 13:55:05 51°21.068 2°53.252 4.6778 2.970683 30.792869 1.780665
2005-02-23 13:56:05 51°20.864 2°53.176 4.6773 2.971104 30.803399 2.218888
2005-02-23 13:57:05 51°20.655 2°53.1 4.6844 2.969841 30.787306 1.949212
2005-02-23 13:58:05 51°20.452 2°53.019 4.6743 2.965841 30.741517 1.645828
2005-02-23 13:59:05 51°20.251 2°52.941 4.6225 2.956473 30.64811 1.51099
2005-02-23 14:00:05 51°20.054 2°52.869 4.5863 2.941527 30.523192 1.51099
2005-02-23 14:01:05 51°19.858 2°52.796 4.5042 2.920582 30.325227 1.848084
2005-02-23 14:02:05 51°19.662 2°52.725 4.4463 2.898586 30.163881 1.982922
2005-02-23 14:03:05 51°19.462 2°52.642 4.3941 2.890693 30.103767 2.016631
2005-02-23 14:04:05 51°19.264 2°52.558 4.3663 2.885852 30.08509 2.151469
2005-02-23 14:05:05 51°19.061 2°52.479 4.3575 2.883326 30.069704 2.555982
2005-02-23 14:06:05 51°18.857 2°52.414 4.3353 2.879854 30.044212 2.320016
2005-02-23 14:07:05 51°18.653 2°52.353 4.3237 2.875749 30.023489 2.320016
2005-02-23 14:08:05 51°18.442 2°52.291 4.3439 2.875013 30.019024 2.724529
2005-02-23 14:09:05 51°18.238 2°52.235 4.4124 2.88922 30.125435 3.836939
2005-02-23 14:10:05 51°18.031 2°52.187 4.4103 2.89785 30.206969 5.117896
2005-02-23 14:11:05 51°17.816 2°52.176 4.3872 2.897955 30.211407 4.106614
2005-02-23 14:12:05 51°17.603 2°52.171 4.3664 2.89343 30.184354 4.106614
2005-02-23 14:13:05 51°17.39 2°52.152 4.3494 2.890588 30.175048 3.567264
2005-02-23 14:14:05 51°17.177 2°52.157 4.3377 2.887852 30.154833 3.23017
2005-02-23 14:15:05 51°16.962 2°52.191 4.3087 2.883642 30.101508 3.027913
2005-02-23 14:16:05 51°16.758 2°52.299 4.3233 2.872066 30.001158 2.387435
2005-02-23 14:17:04 51°16.566 2°52.454 4.3002 2.880169 30.061518 2.454853
2005-02-23 14:18:05 51°16.37 2°52.629 4.2212 2.862069 29.93091 2.117759
2005-02-23 14:19:05 51°16.179 2°52.819 4.2118 2.853334 29.852624 1.982922
2005-02-23 14:20:05 51°15.994 2°53.015 4.2251 2.846704 29.778547 1.780665
2005-02-23 14:21:05 51°15.806 2°53.202 4.2086 2.842495 29.733993 2.08405
2005-02-23 14:22:05 51°15.621 2°53.399 4.1953 2.828815 29.593756 2.353725
2005-02-23 14:23:05 51°15.432 2°53.591 4.1677 2.828289 29.586892 2.218888
2005-02-23 14:24:05 51°15.244 2°53.781 4.1299 2.813978 29.464686 2.185178
2005-02-23 14:25:05 51°15.061 2°53.973 4.1402 2.808611 29.432872 2.555982
2005-02-23 14:26:05 51°14.877 2°54.181 4.1473 2.816924 29.509019 3.466136
2005-02-23 14:27:05 51°14.735 2°54.379 4.1549 2.818082 29.52 3.836939
2005-02-23 14:28:05 51°14.682 2°54.543 4.1658 2.813767 29.46543 2.758238
2005-02-23 14:29:05 51°14.734 2°54.648 4.1511 2.80335 29.343645 2.218888
2005-02-23 14:30:05 51°14.779 2°54.7 4.1544 2.799772 29.301591 2.050341
2005-02-23 14:31:05 51°14.866 2°54.673 4.3677 2.796299 29.2647 -0.848668
2005-02-23 14:32:05 51°14.811 2°54.536 4.606 2.796826 29.267615 -0.882377
2005-02-23 14:33:05 51°14.652 2°54.668 4.7566 2.796931 29.267252 -0.882377
2005-02-23 14:34:05 51°14.49 2°54.843 4.9183 2.797141 29.264164 -0.882377
2005-02-23 14:35:05 51°14.361 2°55.046 5.0605 2.797457 29.260716 -0.882377
2005-02-23 14:36:05 51°14.27 2°55.24 5.185 2.797878 29.257694 -0.882377
2005-02-23 14:37:05 51°14.168 2°55.38 5.3578 2.798614 29.248873 -0.882377
2005-02-23 14:38:05 51°14.048 2°55.47 5.5057 2.799877 29.24219 -0.882377
2005-02-23 14:39:05 51°13.924 2°55.557 5.6191 2.80177 29.242781 -0.882377
2005-02-23 14:40:05 51°13.802 2°55.654 5.7217 2.80398 29.247003 -0.882377
2005-02-23 14:41:05 51°13.711 2°55.792 5.8059 2.80661 29.255273 -0.882377
2005-02-23 14:42:05 51°13.658 2°55.913 5.992 2.809241 29.261969 -0.882377
2005-02-23 14:43:05 51°13.623 2°56.013 6.1505 2.812187 29.273064 -0.848668
2005-02-23 14:44:05 51°13.601 2°56.084 6.3048 2.814923 29.282518 -0.916087
2005-02-23 14:45:05 51°13.595 2°56.101 6.461 2.817764 29.295516 -0.848668